createdAt,value
2023-02-06T00:01:53.017Z,100483.06
2023-02-06T00:04:20.323Z,100505.69
2023-02-06T00:06:47.078Z,100500.69
2023-02-06T00:09:13.864Z,100485.69
2023-02-06T00:11:40.633Z,100507.13
2023-02-06T00:14:07.463Z,100510.91
2023-02-06T00:16:34.931Z,100500.16
2023-02-06T00:19:02.424Z,100497.56
2023-02-06T00:21:29.818Z,100499.03
2023-02-06T00:23:59.179Z,100499.66
2023-02-06T00:26:26.297Z,100499.88
2023-02-06T00:28:53.234Z,100490.47
2023-02-06T00:31:20.196Z,100499.03
2023-02-06T00:33:47.456Z,100501.41
2023-02-06T00:36:14.502Z,100477.34
2023-02-06T00:38:41.192Z,100503.72
2023-02-06T00:41:08.216Z,100431.94
2023-02-06T00:43:35.007Z,100493.69
2023-02-06T00:46:01.717Z,100494.31
2023-02-06T00:48:28.449Z,100491.50
2023-02-06T00:50:55.296Z,100476.22
2023-02-06T00:53:22.371Z,100487.75
2023-02-06T00:55:49.014Z,100505.47
2023-02-06T00:58:15.753Z,100498.28
2023-02-06T01:00:42.423Z,100491.41
2023-02-06T01:03:09.104Z,100494.31
2023-02-06T01:05:36.170Z,100500.59
2023-02-06T01:08:04.555Z,100486.63
2023-02-06T01:10:31.904Z,100499.53
2023-02-06T01:12:58.777Z,100498.28
2023-02-06T01:15:25.716Z,100499.63
2023-02-06T01:17:52.565Z,100490.16
2023-02-06T01:20:19.345Z,100480.88
2023-02-06T01:22:45.966Z,100482.09
2023-02-06T01:25:12.658Z,100473.06
2023-02-06T01:27:39.641Z,100470.56
2023-02-06T01:30:07.621Z,100473.06
2023-02-06T01:32:41.748Z,100470.25
2023-02-06T01:35:10.250Z,100466.72
2023-02-06T01:37:38.074Z,100473.25
2023-02-06T01:40:07.554Z,100462.44
2023-02-06T01:42:36.110Z,100464.63
2023-02-06T01:45:21.593Z,100464.91
2023-02-06T01:47:52.289Z,100454.00
2023-02-06T01:50:19.146Z,100445.66
2023-02-06T01:52:47.341Z,100457.00
2023-02-06T01:55:14.316Z,100438.25
2023-02-06T01:57:42.047Z,100455.97
2023-02-06T02:00:10.764Z,100462.00
2023-02-06T02:02:43.074Z,100459.19
2023-02-06T02:05:11.314Z,100454.94
2023-02-06T02:07:44.214Z,100459.94
2023-02-06T02:10:11.025Z,100463.03
2023-02-06T02:12:37.707Z,100457.44
2023-02-06T02:15:04.685Z,100473.19
2023-02-06T02:17:52.387Z,100464.53
2023-02-06T02:20:47.379Z,100469.63
2023-02-06T02:23:35.065Z,100465.38
2023-02-06T02:26:27.249Z,100466.50
2023-02-06T02:29:21.602Z,100468.78
2023-02-06T02:31:57.357Z,100467.53
2023-02-06T02:35:09.087Z,100470.13
2023-02-06T02:37:54.304Z,100464.19
2023-02-06T02:40:38.806Z,100474.41
2023-02-06T02:43:17.300Z,100470.56
2023-02-06T02:45:55.612Z,100472.63
2023-02-06T02:48:37.283Z,100465.44
2023-02-06T02:51:04.460Z,100470.56
2023-02-06T02:53:31.718Z,100461.16
2023-02-06T02:56:00.164Z,100472.31
2023-02-06T02:58:30.821Z,100489.19
2023-02-06T03:01:04.446Z,100484.81
2023-02-06T03:03:33.092Z,100490.16
2023-02-06T03:06:17.874Z,100496.28
2023-02-06T03:09:02.615Z,100501.81
2023-02-06T03:11:30.524Z,100486.38
2023-02-06T03:14:06.590Z,100490.56
2023-02-06T03:16:45.907Z,100490.97
2023-02-06T03:19:22.380Z,100501.59
2023-02-06T03:21:50.258Z,100498.38
2023-02-06T03:24:24.582Z,100493.28
2023-02-06T03:26:56.863Z,100482.53
2023-02-06T03:29:25.996Z,100508.69
2023-02-06T03:32:02.024Z,100500.47
2023-02-06T03:34:37.606Z,100498.66
2023-02-06T03:37:04.255Z,100504.59
2023-02-06T03:39:31.142Z,100501.38
2023-02-06T03:42:00.028Z,100501.81
2023-02-06T03:44:31.714Z,100505.56
2023-02-06T03:47:00.278Z,100489.41
2023-02-06T03:49:30.495Z,100494.63
2023-02-06T03:52:07.457Z,100483.03
2023-02-06T03:54:38.618Z,100494.78
2023-02-06T03:57:08.263Z,100498.47
2023-02-06T03:59:35.080Z,100497.41
2023-02-06T04:02:04.080Z,100513.66
2023-02-06T04:04:42.411Z,100512.97
2023-02-06T04:07:17.091Z,100520.56
2023-02-06T04:09:43.914Z,100519.31
2023-02-06T04:12:10.709Z,100518.97
2023-02-06T04:14:37.542Z,100517.41
2023-02-06T04:17:05.326Z,100523.97
2023-02-06T04:19:32.798Z,100522.94
2023-02-06T04:21:59.753Z,100526.66
2023-02-06T04:24:26.548Z,100528.97
2023-02-06T04:26:53.306Z,100520.31
2023-02-06T04:29:20.114Z,100509.59
2023-02-06T04:31:47.012Z,100531.56
2023-02-06T04:34:13.648Z,100523.88
2023-02-06T04:36:41.061Z,100532.84
2023-02-06T04:39:09.252Z,100520.13
2023-02-06T04:41:36.003Z,100511.28
2023-02-06T04:44:02.704Z,100517.00
2023-02-06T04:46:29.553Z,100525.16
2023-02-06T04:48:56.258Z,100540.47
2023-02-06T04:51:22.887Z,100533.16
2023-02-06T04:53:49.662Z,100537.66
2023-02-06T04:56:16.460Z,100540.34
2023-02-06T04:58:43.185Z,100544.94
2023-02-06T05:01:09.903Z,100522.13
2023-02-06T05:03:36.727Z,100538.81
2023-02-06T05:06:04.649Z,100569.97
2023-02-06T05:08:31.661Z,100560.56
2023-02-06T05:10:58.395Z,100563.63
2023-02-06T05:13:25.508Z,100557.06
2023-02-06T05:15:52.521Z,100572.97
2023-02-06T05:18:19.273Z,100583.00
2023-02-06T05:20:46.063Z,100556.53
2023-02-06T05:23:12.739Z,100584.47
2023-02-06T05:25:41.947Z,100575.44
2023-02-06T05:28:09.053Z,100585.19
2023-02-06T05:30:36.363Z,100584.53
2023-02-06T05:33:03.072Z,100589.44
2023-02-06T05:35:29.910Z,100591.84
2023-02-06T05:37:57.603Z,100601.34
2023-02-06T05:40:24.677Z,100607.69
2023-02-06T05:42:51.324Z,100612.06
2023-02-06T05:45:18.165Z,100616.16
2023-02-06T05:47:44.862Z,100609.16
2023-02-06T05:50:11.570Z,100622.81
2023-02-06T05:52:38.286Z,100629.69
2023-02-06T05:55:05.258Z,100634.78
2023-02-06T05:57:31.987Z,100640.63
2023-02-06T05:59:58.743Z,100644.72
2023-02-06T06:02:25.530Z,100640.00
2023-02-06T06:04:52.243Z,100638.53
2023-02-06T06:07:18.980Z,100645.63
2023-02-06T06:09:45.672Z,100643.75
2023-02-06T06:12:12.387Z,100641.88
2023-02-06T06:14:39.114Z,100645.63
2023-02-06T06:17:05.777Z,100666.03
2023-02-06T06:19:32.511Z,100651.13
2023-02-06T06:21:59.196Z,100644.03
2023-02-06T06:24:26.577Z,100627.78
2023-02-06T06:26:53.453Z,100650.47
2023-02-06T06:29:20.267Z,100643.81
2023-02-06T06:31:46.972Z,100641.06
2023-02-06T06:34:13.738Z,100634.88
2023-02-06T06:36:40.395Z,100643.38
2023-02-06T06:39:07.119Z,100620.72
2023-02-06T06:41:33.814Z,100637.56
2023-02-06T06:44:00.607Z,100642.13
2023-02-06T06:46:27.303Z,100636.91
2023-02-06T06:48:54.035Z,100645.53
2023-02-06T06:51:21.272Z,100649.28
2023-02-06T06:53:48.128Z,100633.66
2023-02-06T06:56:15.438Z,100632.72
2023-02-06T06:58:42.493Z,100653.63
2023-02-06T07:01:09.379Z,100662.66
2023-02-06T07:03:36.810Z,100653.41
2023-02-06T07:06:04.507Z,100655.91
2023-02-06T07:08:31.318Z,100656.47
2023-02-06T07:10:58.107Z,100679.44
2023-02-06T07:13:24.838Z,100660.41
2023-02-06T07:15:51.540Z,100643.66
2023-02-06T07:18:18.216Z,100670.09
2023-02-06T07:20:44.983Z,100659.88
2023-02-06T07:23:11.707Z,100675.88
2023-02-06T07:25:38.579Z,100681.69
2023-02-06T07:28:05.634Z,100674.06
2023-02-06T07:30:32.430Z,100706.78
2023-02-06T07:32:59.096Z,100687.19
2023-02-06T07:35:25.944Z,100681.72
2023-02-06T07:37:56.014Z,100686.38
2023-02-06T07:40:23.216Z,100674.41
2023-02-06T07:42:49.879Z,100681.69
2023-02-06T07:45:17.351Z,100662.78
2023-02-06T07:47:44.333Z,100700.38
2023-02-06T07:50:12.076Z,100673.00
2023-02-06T07:52:38.766Z,100696.31
2023-02-06T07:55:05.777Z,100693.91
2023-02-06T07:57:32.588Z,100652.28
2023-02-06T07:59:59.197Z,100702.97
2023-02-06T08:02:25.889Z,100709.19
2023-02-06T08:04:52.632Z,100716.72
2023-02-06T08:07:19.314Z,100699.53
2023-02-06T08:09:46.258Z,100704.75
2023-02-06T08:12:13.129Z,100705.09
2023-02-06T08:14:39.947Z,100678.25
2023-02-06T08:17:07.736Z,100697.50
2023-02-06T08:19:34.466Z,100698.94
2023-02-06T08:22:01.208Z,100692.91
2023-02-06T08:24:27.906Z,100704.19
2023-02-06T08:26:54.908Z,100699.31
2023-02-06T08:29:21.649Z,100704.31
2023-02-06T08:31:48.410Z,100700.75
2023-02-06T08:34:15.683Z,100714.63
2023-02-06T08:36:43.668Z,100708.16
2023-02-06T08:39:14.132Z,100696.41
2023-02-06T08:41:43.531Z,100715.25
2023-02-06T08:44:16.204Z,100723.00
2023-02-06T08:46:44.392Z,100723.69
2023-02-06T08:49:17.704Z,100724.25
2023-02-06T08:51:44.929Z,100735.25
2023-02-06T08:54:16.466Z,100731.94
2023-02-06T08:56:43.358Z,100742.53
2023-02-06T08:59:12.312Z,100730.56
2023-02-06T09:01:39.606Z,100738.03
2023-02-06T09:04:09.556Z,100745.59
2023-02-06T09:06:38.362Z,100739.56
2023-02-06T09:09:06.349Z,100735.81
2023-02-06T09:11:33.537Z,100734.91
2023-02-06T09:14:02.501Z,100751.72
2023-02-06T09:16:29.961Z,100742.53
2023-02-06T09:19:01.465Z,100758.97
2023-02-06T09:21:31.174Z,100747.84
2023-02-06T09:24:01.583Z,100751.16
2023-02-06T09:26:33.904Z,100750.13
2023-02-06T09:29:05.517Z,100757.50
2023-02-06T09:31:32.350Z,100736.03
2023-02-06T09:34:00.577Z,100744.81
2023-02-06T09:36:28.689Z,100751.41
2023-02-06T09:38:57.337Z,100751.31
2023-02-06T09:41:27.248Z,100742.81
2023-02-06T09:44:06.655Z,100725.16
2023-02-06T09:46:35.631Z,100715.25
2023-02-06T09:49:11.102Z,100730.53
2023-02-06T09:51:59.498Z,100724.41
2023-02-06T09:54:41.171Z,100730.97
2023-02-06T09:57:31.407Z,100725.47
2023-02-06T10:00:02.906Z,100725.50
2023-02-06T10:02:50.643Z,100729.53
2023-02-06T10:05:42.195Z,100733.34
2023-02-06T10:08:21.267Z,100701.44
2023-02-06T10:10:53.513Z,100720.22
2023-02-06T10:13:29.245Z,100725.66
2023-02-06T10:16:15.941Z,100707.78
2023-02-06T10:18:50.906Z,100700.84
2023-02-06T10:21:41.491Z,100718.81
2023-02-06T10:24:40.487Z,100731.28
2023-02-06T10:27:14.919Z,100726.22
2023-02-06T10:29:44.632Z,100712.75
2023-02-06T10:32:29.891Z,100714.88
2023-02-06T10:35:21.109Z,100701.75
2023-02-06T10:38:13.623Z,100711.16
2023-02-06T10:41:01.248Z,100703.31
2023-02-06T10:43:30.947Z,100701.06
2023-02-06T10:46:04.060Z,100707.56
2023-02-06T10:48:42.580Z,100699.00
2023-02-06T10:51:21.422Z,100705.31
2023-02-06T10:53:52.675Z,100690.75
2023-02-06T10:56:26.647Z,100686.78
2023-02-06T10:58:58.676Z,100679.81
2023-02-06T11:01:27.346Z,100698.63
2023-02-06T11:04:17.754Z,100690.00
2023-02-06T11:06:46.953Z,100686.63
2023-02-06T11:09:15.706Z,100693.09
2023-02-06T11:11:48.450Z,100697.97
2023-02-06T11:14:25.235Z,100693.88
2023-02-06T11:16:52.874Z,100691.63
2023-02-06T11:19:22.305Z,100698.06
2023-02-06T11:21:51.143Z,100696.41
2023-02-06T11:24:20.957Z,100704.78
2023-02-06T11:26:55.823Z,100695.72
2023-02-06T11:29:38.051Z,100701.31
2023-02-06T11:32:07.422Z,100689.22
2023-02-06T11:34:36.067Z,100686.94
2023-02-06T11:37:05.608Z,100687.41
2023-02-06T11:39:37.847Z,100689.78
2023-02-06T11:42:20.218Z,100694.19
2023-02-06T11:44:49.047Z,100687.25
2023-02-06T11:47:33.448Z,100684.53
2023-02-06T11:50:21.895Z,100690.56
2023-02-06T11:52:49.118Z,100694.38
2023-02-06T11:55:30.240Z,100701.66
2023-02-06T11:58:12.199Z,100711.91
2023-02-06T12:00:59.004Z,100725.88
2023-02-06T12:03:38.631Z,100724.91
2023-02-06T12:06:15.351Z,100730.16
2023-02-06T12:08:51.283Z,100727.75
2023-02-06T12:11:37.840Z,100739.53
2023-02-06T12:14:15.113Z,100742.03
2023-02-06T12:16:45.799Z,100738.63
2023-02-06T12:19:24.830Z,100750.63
2023-02-06T12:21:58.117Z,100751.22
2023-02-06T12:24:35.261Z,100758.75
2023-02-06T12:27:15.752Z,100764.28
2023-02-06T12:29:56.388Z,100765.72
2023-02-06T12:32:34.589Z,100733.00
2023-02-06T12:35:16.161Z,100746.94
2023-02-06T12:37:53.359Z,100768.84
2023-02-06T12:40:43.117Z,100740.38
2023-02-06T12:43:15.850Z,100765.50
2023-02-06T12:45:55.163Z,100760.69
2023-02-06T12:48:25.912Z,100774.94
2023-02-06T12:51:06.260Z,100778.97
2023-02-06T12:53:42.785Z,100793.88
2023-02-06T12:56:38.706Z,100801.09
2023-02-06T12:59:17.491Z,100799.66
2023-02-06T13:02:05.376Z,100803.34
2023-02-06T13:04:36.114Z,100792.28
2023-02-06T13:07:18.411Z,100789.97
2023-02-06T13:10:07.058Z,100808.00
2023-02-06T13:12:34.824Z,100816.19
2023-02-06T13:15:20.338Z,100815.50
2023-02-06T13:17:47.178Z,100812.31
2023-02-06T13:20:14.968Z,100818.25
2023-02-06T13:22:41.782Z,100817.94
2023-02-06T13:25:29.789Z,100819.53
2023-02-06T13:28:22.259Z,100844.38
2023-02-06T13:30:59.149Z,100827.63
2023-02-06T13:33:37.669Z,100830.00
2023-02-06T13:36:16.180Z,100835.75
2023-02-06T13:38:43.810Z,100837.56
2023-02-06T13:41:14.237Z,100842.97
2023-02-06T13:44:06.784Z,100845.19
2023-02-06T13:47:12.143Z,100849.78
2023-02-06T13:49:57.246Z,100859.91
2023-02-06T13:52:39.712Z,100859.72
2023-02-06T13:55:20.436Z,100865.13
2023-02-06T13:57:53.174Z,100872.31
2023-02-06T14:00:31.421Z,100861.75
2023-02-06T14:03:13.800Z,100874.19
2023-02-06T14:05:43.193Z,100897.69
2023-02-06T14:08:21.813Z,100886.59
2023-02-06T14:11:06.673Z,100891.94
2023-02-06T14:13:42.253Z,100879.97
2023-02-06T14:16:50.934Z,100892.78
2023-02-06T14:19:33.995Z,100887.66
2023-02-06T14:22:24.471Z,100887.22
2023-02-06T14:24:53.979Z,100899.06
2023-02-06T14:27:26.867Z,100903.06
2023-02-06T14:30:06.187Z,100900.53
2023-02-06T14:32:39.691Z,100897.63
2023-02-06T14:35:33.383Z,100891.56
2023-02-06T14:38:08.751Z,100902.66
2023-02-06T14:40:42.588Z,100899.72
2023-02-06T14:43:18.077Z,100890.72
2023-02-06T14:46:06.253Z,100911.84
2023-02-06T14:48:43.109Z,100913.94
2023-02-06T14:51:31.539Z,100902.44
2023-02-06T14:54:01.819Z,100902.44
2023-02-06T14:56:37.270Z,100902.66
2023-02-06T14:59:13.006Z,100903.06
2023-02-06T15:01:41.064Z,100909.53
2023-02-06T15:04:11.739Z,100910.16
2023-02-06T15:06:42.213Z,100893.97
2023-02-06T15:09:23.115Z,100908.28
2023-02-06T15:11:56.683Z,100921.56
2023-02-06T15:14:29.403Z,100912.75
2023-02-06T15:17:02.968Z,100908.59
2023-02-06T15:19:32.632Z,100920.50
2023-02-06T15:22:13.191Z,100921.66
2023-02-06T15:24:54.993Z,100935.53
2023-02-06T15:27:27.539Z,100938.38
2023-02-06T15:29:55.093Z,100929.06
2023-02-06T15:32:40.091Z,100956.84
2023-02-06T15:35:30.626Z,100961.75
2023-02-06T15:38:05.245Z,100961.66
2023-02-06T15:40:39.124Z,100967.59
2023-02-06T15:43:06.816Z,100958.53
2023-02-06T15:45:38.036Z,100963.97
2023-02-06T15:48:17.816Z,100971.06
2023-02-06T15:50:56.495Z,100967.31
2023-02-06T15:53:39.034Z,100975.66
2023-02-06T15:56:27.584Z,100990.47
2023-02-06T15:59:00.353Z,100981.63
2023-02-06T16:01:30.524Z,100998.31
2023-02-06T16:04:06.494Z,100994.78
2023-02-06T16:06:33.555Z,100996.31
2023-02-06T16:09:03.100Z,100999.53
2023-02-06T16:11:47.573Z,101006.72
2023-02-06T16:14:34.956Z,100987.41
2023-02-06T16:17:09.799Z,101018.53
2023-02-06T16:19:56.489Z,101010.25
2023-02-06T16:22:31.046Z,101019.59
2023-02-06T16:25:18.441Z,101021.19
2023-02-06T16:27:46.295Z,101026.13
2023-02-06T16:30:36.962Z,101045.06
2023-02-06T16:33:24.401Z,101041.25
2023-02-06T16:35:51.105Z,101048.53
2023-02-06T16:38:17.774Z,101021.81
2023-02-06T16:40:44.574Z,101036.06
2023-02-06T16:43:12.307Z,101043.09
2023-02-06T16:45:38.979Z,101040.03
2023-02-06T16:48:11.970Z,101046.34
2023-02-06T16:50:41.427Z,101050.53
2023-02-06T16:53:18.152Z,101072.34
2023-02-06T16:55:44.895Z,101056.28
2023-02-06T16:58:18.133Z,101068.78
2023-02-06T17:00:45.744Z,101054.72
2023-02-06T17:03:16.203Z,101066.16
2023-02-06T17:05:45.227Z,101071.19
2023-02-06T17:08:22.781Z,101074.75
2023-02-06T17:10:49.915Z,101084.22
2023-02-06T17:13:17.553Z,101072.47
2023-02-06T17:15:47.208Z,101078.47
2023-02-06T17:18:16.786Z,101093.28
2023-02-06T17:20:46.410Z,101086.16
2023-02-06T17:23:14.327Z,101073.03
2023-02-06T17:25:43.149Z,101087.00
2023-02-06T17:28:13.343Z,101078.81
2023-02-06T17:30:41.090Z,101091.75
2023-02-06T17:33:08.427Z,101081.31
2023-02-06T17:35:37.032Z,101085.41
2023-02-06T17:38:09.020Z,101079.13
2023-02-06T17:40:37.115Z,101090.16
2023-02-06T17:43:07.094Z,101091.91
2023-02-06T17:45:37.418Z,101084.28
2023-02-06T17:48:04.784Z,101080.88
2023-02-06T17:50:32.159Z,101082.91
2023-02-06T17:53:00.403Z,101087.31
2023-02-06T17:55:28.471Z,101089.53
2023-02-06T17:57:55.933Z,101091.88
2023-02-06T18:00:24.381Z,101100.56
2023-02-06T18:02:52.792Z,101086.31
2023-02-06T18:05:20.091Z,101085.00
2023-02-06T18:07:49.594Z,101093.84
2023-02-06T18:10:20.575Z,101084.22
2023-02-06T18:12:47.732Z,101082.78
2023-02-06T18:15:15.569Z,101083.31
2023-02-06T18:17:43.016Z,101086.47
2023-02-06T18:20:11.510Z,101084.50
2023-02-06T18:22:44.097Z,101074.00
2023-02-06T18:25:13.736Z,101055.84
2023-02-06T18:27:42.018Z,101083.22
2023-02-06T18:30:10.148Z,101088.06
2023-02-06T18:32:37.852Z,101085.28
2023-02-06T18:35:06.389Z,101086.28
2023-02-06T18:37:33.281Z,101100.38
2023-02-06T18:39:59.944Z,101097.19
2023-02-06T18:42:45.179Z,101098.03
2023-02-06T18:45:11.946Z,101106.69
2023-02-06T18:47:42.377Z,101093.66
2023-02-06T18:50:10.952Z,101090.03
2023-02-06T18:52:39.494Z,101094.75
2023-02-06T18:55:10.949Z,101090.38
2023-02-06T18:57:37.890Z,101095.31
2023-02-06T19:00:11.563Z,101100.25
2023-02-06T19:02:38.438Z,101093.16
2023-02-06T19:05:05.227Z,101095.56
2023-02-06T19:07:31.974Z,101107.09
2023-02-06T19:10:00.323Z,101096.31
2023-02-06T19:12:28.651Z,101099.41
2023-02-06T19:14:59.697Z,101114.50
2023-02-06T19:17:27.676Z,101117.09
2023-02-06T19:19:54.881Z,101120.25
2023-02-06T19:22:21.758Z,101121.41
2023-02-06T19:24:48.742Z,101126.78
2023-02-06T19:27:15.452Z,101114.97
2023-02-06T19:29:42.358Z,101128.50
2023-02-06T19:32:09.553Z,101136.38
2023-02-06T19:34:41.014Z,101131.56
2023-02-06T19:37:10.163Z,101120.28
2023-02-06T19:39:40.261Z,101130.53
2023-02-06T19:42:15.596Z,101136.25
2023-02-06T19:44:43.034Z,101124.41
2023-02-06T19:47:10.673Z,101128.34
2023-02-06T19:49:37.835Z,101146.47
2023-02-06T19:52:04.705Z,101156.06
2023-02-06T19:54:31.473Z,101146.38
2023-02-06T19:57:00.592Z,101145.63
2023-02-06T19:59:29.377Z,101147.78
2023-02-06T20:01:59.221Z,101158.88
2023-02-06T20:04:29.218Z,101160.94
2023-02-06T20:06:56.642Z,101167.47
2023-02-06T20:09:24.127Z,101167.06
2023-02-06T20:11:51.469Z,101160.66
2023-02-06T20:14:19.194Z,101165.88
2023-02-06T20:16:47.055Z,101174.16
2023-02-06T20:19:18.861Z,101171.06
2023-02-06T20:21:51.256Z,101167.47
2023-02-06T20:24:22.655Z,101164.09
2023-02-06T20:26:54.558Z,101163.53
2023-02-06T20:29:30.253Z,101166.25
2023-02-06T20:31:57.424Z,101146.69
2023-02-06T20:34:25.131Z,101166.69
2023-02-06T20:36:54.176Z,101162.00
2023-02-06T20:39:21.098Z,101167.78
2023-02-06T20:41:49.572Z,101163.41
2023-02-06T20:44:17.172Z,101154.72
2023-02-06T20:46:43.909Z,101151.41
2023-02-06T20:49:17.509Z,101157.75
2023-02-06T20:51:44.549Z,101165.44
2023-02-06T20:54:11.727Z,101159.03
2023-02-06T20:56:39.425Z,101156.91
2023-02-06T20:59:06.626Z,101137.44
2023-02-06T21:01:33.524Z,101140.06
2023-02-06T21:04:06.054Z,101152.16
2023-02-06T21:06:35.067Z,101151.50
2023-02-06T21:09:03.210Z,101141.25
2023-02-06T21:11:32.905Z,101138.56
2023-02-06T21:14:01.600Z,101127.38
2023-02-06T21:16:30.426Z,101135.03
2023-02-06T21:18:58.350Z,101139.19
2023-02-06T21:21:26.309Z,101150.19
2023-02-06T21:23:55.878Z,101151.41
2023-02-06T21:26:23.936Z,101152.34
2023-02-06T21:28:51.032Z,101159.53
2023-02-06T21:31:36.847Z,101167.81
2023-02-06T21:34:17.103Z,101179.09
2023-02-06T21:36:44.217Z,101181.91
2023-02-06T21:39:15.222Z,101188.97
2023-02-06T21:41:41.932Z,101194.75
2023-02-06T21:44:08.648Z,101193.63
2023-02-06T21:46:35.364Z,101194.47
2023-02-06T21:49:02.164Z,101205.47
2023-02-06T21:51:29.317Z,101191.78
2023-02-06T21:53:56.970Z,101198.09
2023-02-06T21:56:26.763Z,101200.63
2023-02-06T21:58:53.961Z,101184.31
2023-02-06T22:01:20.597Z,101188.59
2023-02-06T22:03:48.171Z,101194.00
2023-02-06T22:06:15.486Z,101199.31
2023-02-06T22:08:45.412Z,101199.59
2023-02-06T22:11:22.079Z,101200.31
2023-02-06T22:13:49.346Z,101201.63
2023-02-06T22:16:21.185Z,101207.16
2023-02-06T22:18:47.968Z,101203.38
2023-02-06T22:21:17.609Z,101209.75
2023-02-06T22:23:45.955Z,101210.56
2023-02-06T22:26:14.914Z,101197.72
2023-02-06T22:28:42.279Z,101211.97
2023-02-06T22:31:20.649Z,101214.75
2023-02-06T22:33:48.721Z,101218.13
2023-02-06T22:36:18.689Z,101217.94
2023-02-06T22:38:46.514Z,101213.91
2023-02-06T22:41:15.991Z,101218.28
2023-02-06T22:43:44.590Z,101217.72
2023-02-06T22:46:22.341Z,101216.81
2023-02-06T22:48:49.715Z,101226.38
2023-02-06T22:51:16.762Z,101216.81
2023-02-06T22:53:43.885Z,101213.78
2023-02-06T22:56:31.385Z,101215.50
2023-02-06T22:59:02.796Z,101227.88
2023-02-06T23:01:42.111Z,101218.75
2023-02-06T23:04:13.982Z,101214.34
2023-02-06T23:06:41.187Z,101212.50
2023-02-06T23:09:11.929Z,101220.50
2023-02-06T23:11:38.753Z,101233.16
2023-02-06T23:14:06.821Z,101228.03
2023-02-06T23:16:35.104Z,101230.63
2023-02-06T23:19:04.741Z,101235.06
2023-02-06T23:21:33.845Z,101231.56
2023-02-06T23:24:00.863Z,101241.06
2023-02-06T23:26:29.052Z,101237.16
2023-02-06T23:29:00.317Z,101235.38
2023-02-06T23:31:28.273Z,101243.66
2023-02-06T23:33:55.280Z,101245.66
2023-02-06T23:36:24.244Z,101247.13
2023-02-06T23:38:51.596Z,101247.25
2023-02-06T23:41:21.129Z,101244.50
2023-02-06T23:43:56.644Z,101241.06
2023-02-06T23:46:24.908Z,101201.13
2023-02-06T23:48:52.018Z,101255.69
2023-02-06T23:51:19.470Z,101257.25
2023-02-06T23:53:46.718Z,101263.47
2023-02-06T23:56:16.126Z,101261.03
2023-02-06T23:58:43.214Z,101255.69
